Hlavní strana
METAR-TAF:

METAR-TAF

Letiště :

Terst / Ronchi dei Legionari, Itálie

zeměpisná šířka: 45-49N, zeměpisná délka: 013-29E, výška: 12 m

Aktuální stav počasí

Zpráva byla vytvořena před 39 minutami, v 14:50 UTC
Východoseverovýchodní vítr 12 kt, proměnlivý mezi severovýchodním a východním
Teplota 13°C
Vlhkost vzduchu 30%
Tlak 1030 hPa
Viditelnost 10 km a více
Žádná oblačnost pod 1500 m, nevyskytují se cumulonimby.

METAR: LIPQ 201450Z 07012KT 040V100 CAVOK 13/M04 Q1030

Čas: 16:29 (15:29 UTC)

Předpověď počasí

Zpráva byla vytvořena před 4 hodinami a 29 minutami, v 11:00 UTC
Předpověď platná od 20 v 12 UTC do 21 v 12 UTC
Východoseverovýchodní vítr 8 kt
Viditelnost 10 km a více
Žádná oblačnost pod 1500 m, nevyskytují se cumulonimby.

TAF: LIPQ 201100Z 2012/2112 07008KT CAVOK

Stav a předpovědi počasí z více než 4 000 letišť (zprávy METAR a TAF).

Červené a žluté tečky na mapě představují dostupné meteorologické stanice.

Když kurzor umístíte na tečku, zobrazí se název stanice.

Pak kliknutím zobrazíte stav a předpověď počasí.

Chcete-li změnit mapu, kliknutím na zelené tlačítko se znaménkem +mapu přiblížíte, kliknutím na zelené tlačítko se znaménkem – mapu oddálíte a kliknutím na zelené šipky přejdete na sousední mapy.


METAR-TAF: